Search for airport 
image banner adimage banner adimage banner ad
image banner ad

CYEV - Inuvik (Mike Zubko)

Located in Inuvik, Canada

ICAO - CYEV, IATA - YEV

Data provided by Airmate  

General information

Coordinates: N68°18'14" W133°28'59"
Elevation is 222 feet MSL.
Magnetic variation is 22.4167° East
View others Airports in Northwest Territories

Operational data

Special qualification required
Current time UTC:
Current local time:
Weather
METAR: CYEV 221600Z 09005KT 15SM BKN140 M02/M04 A2934 RMK AC7 SLP941
TAF: TAF CYEV 221239Z 2213/2301 05008KT P6SM SKC FM221500 VRB03KT P6SM FEW020 BKN120 FM222100 06008KT P6SM SCT020 BKN040 TEMPO 2221/2301 5SM -RASN BKN020 OVC030 RMK NXT FCST BY 221900Z
View NOTAMs / SUP AIP / TFR affecting this airport [VIEW]
Communications frequencies: [VIEW]

Runways:

RWY identifierQFULength (ft)Width (ft)SurfaceLDA (ft)
0686°6001150ASPH6001
24266°6001150ASPH6001

Airport contact information

Address: Inuvik Canada

Satellite view of CYEV